sensor_id;sensor_type;location;lat;lon;timestamp;P1;durP1;ratioP1;P2;durP2;ratioP2
10884;SDS011;5495;53.252;10.390;2023-02-15T00:02:10;61.03;;;33.87;;
10884;SDS011;5495;53.252;10.390;2023-02-15T00:04:37;65.90;;;35.07;;
10884;SDS011;5495;53.252;10.390;2023-02-15T00:07:16;58.90;;;34.87;;
10884;SDS011;5495;53.252;10.390;2023-02-15T00:09:46;64.83;;;35.30;;
10884;SDS011;5495;53.252;10.390;2023-02-15T00:12:15;65.53;;;36.27;;
10884;SDS011;5495;53.252;10.390;2023-02-15T00:14:44;59.53;;;35.17;;
10884;SDS011;5495;53.252;10.390;2023-02-15T00:17:14;69.63;;;35.27;;
10884;SDS011;5495;53.252;10.390;2023-02-15T00:19:45;58.13;;;34.60;;
10884;SDS011;5495;53.252;10.390;2023-02-15T00:22:14;57.27;;;34.27;;
10884;SDS011;5495;53.252;10.390;2023-02-15T00:25:04;64.67;;;34.23;;
10884;SDS011;5495;53.252;10.390;2023-02-15T00:27:32;104.20;;;34.10;;
10884;SDS011;5495;53.252;10.390;2023-02-15T00:30:03;68.03;;;34.80;;
10884;SDS011;5495;53.252;10.390;2023-02-15T00:32:35;71.03;;;33.83;;
10884;SDS011;5495;53.252;10.390;2023-02-15T00:35:08;60.30;;;31.53;;
10884;SDS011;5495;53.252;10.390;2023-02-15T00:37:37;84.53;;;32.27;;
10884;SDS011;5495;53.252;10.390;2023-02-15T00:40:05;56.83;;;32.43;;
10884;SDS011;5495;53.252;10.390;2023-02-15T00:42:33;57.83;;;32.30;;
10884;SDS011;5495;53.252;10.390;2023-02-15T00:45:11;63.23;;;31.33;;
10884;SDS011;5495;53.252;10.390;2023-02-15T00:47:46;66.23;;;32.70;;
10884;SDS011;5495;53.252;10.390;2023-02-15T00:50:19;56.40;;;32.07;;
10884;SDS011;5495;53.252;10.390;2023-02-15T00:52:49;81.03;;;33.17;;
10884;SDS011;5495;53.252;10.390;2023-02-15T00:55:16;57.87;;;34.07;;
10884;SDS011;5495;53.252;10.390;2023-02-15T00:57:44;70.73;;;32.17;;
10884;SDS011;5495;53.252;10.390;2023-02-15T01:00:13;51.97;;;29.70;;
10884;SDS011;5495;53.252;10.390;2023-02-15T01:02:41;55.77;;;31.00;;
10884;SDS011;5495;53.252;10.390;2023-02-15T01:05:08;60.83;;;30.93;;
10884;SDS011;5495;53.252;10.390;2023-02-15T01:07:38;50.80;;;31.20;;
10884;SDS011;5495;53.252;10.390;2023-02-15T01:10:09;80.33;;;32.47;;
10884;SDS011;5495;53.252;10.390;2023-02-15T01:12:39;63.47;;;30.40;;
10884;SDS011;5495;53.252;10.390;2023-02-15T01:15:12;67.70;;;30.07;;
10884;SDS011;5495;53.252;10.390;2023-02-15T01:17:44;97.13;;;32.07;;
10884;SDS011;5495;53.252;10.390;2023-02-15T01:20:16;69.07;;;30.80;;
10884;SDS011;5495;53.252;10.390;2023-02-15T01:22:44;114.87;;;30.57;;
10884;SDS011;5495;53.252;10.390;2023-02-15T01:25:12;57.93;;;28.57;;
10884;SDS011;5495;53.252;10.390;2023-02-15T01:27:41;96.83;;;30.57;;
10884;SDS011;5495;53.252;10.390;2023-02-15T01:30:14;64.00;;;30.17;;
10884;SDS011;5495;53.252;10.390;2023-02-15T01:32:42;71.63;;;29.57;;
10884;SDS011;5495;53.252;10.390;2023-02-15T01:35:10;65.47;;;29.43;;
10884;SDS011;5495;53.252;10.390;2023-02-15T01:37:40;62.13;;;30.37;;
10884;SDS011;5495;53.252;10.390;2023-02-15T01:40:08;61.30;;;29.63;;
10884;SDS011;5495;53.252;10.390;2023-02-15T01:42:38;108.33;;;29.67;;
10884;SDS011;5495;53.252;10.390;2023-02-15T01:45:17;96.40;;;30.57;;
10884;SDS011;5495;53.252;10.390;2023-02-15T01:47:48;53.93;;;29.43;;
10884;SDS011;5495;53.252;10.390;2023-02-15T01:50:21;84.27;;;31.30;;
10884;SDS011;5495;53.252;10.390;2023-02-15T01:52:58;59.67;;;28.70;;
10884;SDS011;5495;53.252;10.390;2023-02-15T01:55:32;79.60;;;30.07;;
10884;SDS011;5495;53.252;10.390;2023-02-15T01:58:13;53.73;;;28.97;;
10884;SDS011;5495;53.252;10.390;2023-02-15T02:00:45;99.23;;;28.87;;
10884;SDS011;5495;53.252;10.390;2023-02-15T02:03:13;106.63;;;29.60;;
10884;SDS011;5495;53.252;10.390;2023-02-15T02:05:54;97.40;;;29.40;;
10884;SDS011;5495;53.252;10.390;2023-02-15T02:08:24;77.60;;;29.77;;
10884;SDS011;5495;53.252;10.390;2023-02-15T02:10:52;62.07;;;28.93;;
10884;SDS011;5495;53.252;10.390;2023-02-15T02:13:38;103.53;;;28.97;;
10884;SDS011;5495;53.252;10.390;2023-02-15T02:16:10;83.07;;;28.57;;
10884;SDS011;5495;53.252;10.390;2023-02-15T02:18:52;92.30;;;28.67;;
10884;SDS011;5495;53.252;10.390;2023-02-15T02:27:39;74.37;;;27.30;;
10884;SDS011;5495;53.252;10.390;2023-02-15T02:33:21;60.13;;;28.67;;
10884;SDS011;5495;53.252;10.390;2023-02-15T02:36:03;82.70;;;27.33;;
10884;SDS011;5495;53.252;10.390;2023-02-15T02:38:48;88.03;;;28.97;;
10884;SDS011;5495;53.252;10.390;2023-02-15T02:41:32;100.97;;;27.27;;
10884;SDS011;5495;53.252;10.390;2023-02-15T02:44:07;76.13;;;27.47;;
10884;SDS011;5495;53.252;10.390;2023-02-15T02:46:43;57.37;;;26.33;;
10884;SDS011;5495;53.252;10.390;2023-02-15T02:49:32;65.93;;;27.17;;
10884;SDS011;5495;53.252;10.390;2023-02-15T02:52:05;53.50;;;26.80;;
10884;SDS011;5495;53.252;10.390;2023-02-15T02:54:56;48.80;;;25.20;;
10884;SDS011;5495;53.252;10.390;2023-02-15T02:57:25;44.83;;;24.67;;
10884;SDS011;5495;53.252;10.390;2023-02-15T02:59:58;119.73;;;27.67;;
10884;SDS011;5495;53.252;10.390;2023-02-15T03:02:49;67.30;;;26.50;;
10884;SDS011;5495;53.252;10.390;2023-02-15T03:05:22;79.57;;;26.60;;
10884;SDS011;5495;53.252;10.390;2023-02-15T03:07:56;107.57;;;27.97;;
10884;SDS011;5495;53.252;10.390;2023-02-15T03:10:35;95.50;;;25.73;;
10884;SDS011;5495;53.252;10.390;2023-02-15T03:13:05;78.97;;;25.23;;
10884;SDS011;5495;53.252;10.390;2023-02-15T03:15:37;138.53;;;30.37;;
10884;SDS011;5495;53.252;10.390;2023-02-15T03:18:35;120.30;;;28.57;;
10884;SDS011;5495;53.252;10.390;2023-02-15T03:21:09;55.37;;;25.90;;
10884;SDS011;5495;53.252;10.390;2023-02-15T03:23:48;69.17;;;26.27;;
10884;SDS011;5495;53.252;10.390;2023-02-15T03:26:37;60.20;;;25.87;;
10884;SDS011;5495;53.252;10.390;2023-02-15T03:29:08;57.73;;;26.03;;
10884;SDS011;5495;53.252;10.390;2023-02-15T03:31:38;66.40;;;26.33;;
10884;SDS011;5495;53.252;10.390;2023-02-15T03:34:12;47.90;;;25.80;;
10884;SDS011;5495;53.252;10.390;2023-02-15T03:36:43;73.10;;;26.73;;
10884;SDS011;5495;53.252;10.390;2023-02-15T03:39:20;56.67;;;25.93;;
10884;SDS011;5495;53.252;10.390;2023-02-15T03:42:01;60.97;;;26.20;;
10884;SDS011;5495;53.252;10.390;2023-02-15T03:44:37;82.43;;;25.33;;
10884;SDS011;5495;53.252;10.390;2023-02-15T03:47:13;39.97;;;24.73;;
10884;SDS011;5495;53.252;10.390;2023-02-15T03:49:48;75.90;;;24.77;;
10884;SDS011;5495;53.252;10.390;2023-02-15T03:52:28;96.90;;;26.47;;
10884;SDS011;5495;53.252;10.390;2023-02-15T03:54:58;71.80;;;25.73;;
10884;SDS011;5495;53.252;10.390;2023-02-15T03:57:28;57.80;;;25.77;;
10884;SDS011;5495;53.252;10.390;2023-02-15T04:00:13;45.27;;;25.20;;
10884;SDS011;5495;53.252;10.390;2023-02-15T04:03:07;73.00;;;26.90;;
10884;SDS011;5495;53.252;10.390;2023-02-15T04:05:47;41.90;;;24.83;;
10884;SDS011;5495;53.252;10.390;2023-02-15T04:08:16;48.97;;;26.60;;
10884;SDS011;5495;53.252;10.390;2023-02-15T04:11:08;41.17;;;26.03;;
10884;SDS011;5495;53.252;10.390;2023-02-15T04:13:35;38.37;;;24.97;;
10884;SDS011;5495;53.252;10.390;2023-02-15T04:16:02;46.40;;;25.80;;
10884;SDS011;5495;53.252;10.390;2023-02-15T04:18:29;76.10;;;25.90;;
10884;SDS011;5495;53.252;10.390;2023-02-15T04:21:14;40.60;;;23.77;;
10884;SDS011;5495;53.252;10.390;2023-02-15T04:24:02;44.90;;;27.23;;
10884;SDS011;5495;53.252;10.390;2023-02-15T04:26:47;61.17;;;28.30;;
10884;SDS011;5495;53.252;10.390;2023-02-15T04:29:18;40.60;;;26.63;;
10884;SDS011;5495;53.252;10.390;2023-02-15T04:34:37;47.07;;;25.97;;
10884;SDS011;5495;53.252;10.390;2023-02-15T04:37:04;45.33;;;23.87;;
10884;SDS011;5495;53.252;10.390;2023-02-15T04:39:36;42.83;;;26.33;;
10884;SDS011;5495;53.252;10.390;2023-02-15T04:42:06;40.40;;;24.93;;
10884;SDS011;5495;53.252;10.390;2023-02-15T04:44:34;36.77;;;22.97;;
10884;SDS011;5495;53.252;10.390;2023-02-15T04:47:01;46.70;;;21.80;;
10884;SDS011;5495;53.252;10.390;2023-02-15T04:49:31;77.70;;;23.70;;
10884;SDS011;5495;53.252;10.390;2023-02-15T04:51:59;52.70;;;20.40;;
10884;SDS011;5495;53.252;10.390;2023-02-15T04:54:38;60.90;;;22.27;;
10884;SDS011;5495;53.252;10.390;2023-02-15T04:57:08;82.10;;;23.73;;
10884;SDS011;5495;53.252;10.390;2023-02-15T04:59:37;54.83;;;21.13;;
10884;SDS011;5495;53.252;10.390;2023-02-15T05:02:05;39.83;;;19.70;;
10884;SDS011;5495;53.252;10.390;2023-02-15T05:04:34;56.57;;;20.90;;
10884;SDS011;5495;53.252;10.390;2023-02-15T05:07:03;52.80;;;19.83;;
10884;SDS011;5495;53.252;10.390;2023-02-15T05:09:30;56.07;;;21.27;;
10884;SDS011;5495;53.252;10.390;2023-02-15T05:11:59;75.77;;;21.07;;
10884;SDS011;5495;53.252;10.390;2023-02-15T05:14:27;69.10;;;21.00;;
10884;SDS011;5495;53.252;10.390;2023-02-15T05:16:56;46.00;;;18.83;;
10884;SDS011;5495;53.252;10.390;2023-02-15T05:19:33;37.03;;;19.57;;
10884;SDS011;5495;53.252;10.390;2023-02-15T05:22:06;57.40;;;21.13;;
10884;SDS011;5495;53.252;10.390;2023-02-15T05:24:38;47.20;;;18.70;;
10884;SDS011;5495;53.252;10.390;2023-02-15T05:27:24;55.37;;;19.77;;
10884;SDS011;5495;53.252;10.390;2023-02-15T05:30:13;46.07;;;19.27;;
10884;SDS011;5495;53.252;10.390;2023-02-15T05:32:41;61.47;;;19.33;;
10884;SDS011;5495;53.252;10.390;2023-02-15T05:35:12;40.90;;;19.63;;
10884;SDS011;5495;53.252;10.390;2023-02-15T05:37:41;45.77;;;19.17;;
10884;SDS011;5495;53.252;10.390;2023-02-15T05:40:14;61.13;;;19.80;;
10884;SDS011;5495;53.252;10.390;2023-02-15T05:42:43;27.00;;;18.47;;
10884;SDS011;5495;53.252;10.390;2023-02-15T05:45:10;44.20;;;18.97;;
10884;SDS011;5495;53.252;10.390;2023-02-15T05:47:38;44.70;;;18.53;;
10884;SDS011;5495;53.252;10.390;2023-02-15T05:50:06;70.80;;;19.90;;
10884;SDS011;5495;53.252;10.390;2023-02-15T05:52:36;57.73;;;19.60;;
10884;SDS011;5495;53.252;10.390;2023-02-15T05:55:04;51.90;;;18.60;;
10884;SDS011;5495;53.252;10.390;2023-02-15T05:57:39;57.47;;;18.37;;
10884;SDS011;5495;53.252;10.390;2023-02-15T06:00:11;57.33;;;19.37;;
10884;SDS011;5495;53.252;10.390;2023-02-15T06:02:40;37.90;;;17.53;;
10884;SDS011;5495;53.252;10.390;2023-02-15T06:05:08;35.23;;;17.50;;
10884;SDS011;5495;53.252;10.390;2023-02-15T06:07:35;29.10;;;17.23;;
10884;SDS011;5495;53.252;10.390;2023-02-15T06:10:07;47.47;;;17.53;;
10884;SDS011;5495;53.252;10.390;2023-02-15T06:12:35;50.60;;;16.90;;
10884;SDS011;5495;53.252;10.390;2023-02-15T06:15:08;69.60;;;18.63;;
10884;SDS011;5495;53.252;10.390;2023-02-15T06:17:37;68.70;;;17.70;;
10884;SDS011;5495;53.252;10.390;2023-02-15T06:20:12;51.83;;;17.97;;
10884;SDS011;5495;53.252;10.390;2023-02-15T06:22:46;61.20;;;18.00;;
10884;SDS011;5495;53.252;10.390;2023-02-15T06:25:15;42.93;;;17.67;;
10884;SDS011;5495;53.252;10.390;2023-02-15T06:27:45;69.27;;;17.50;;
10884;SDS011;5495;53.252;10.390;2023-02-15T06:30:17;74.50;;;18.40;;
10884;SDS011;5495;53.252;10.390;2023-02-15T06:32:56;36.50;;;17.43;;
10884;SDS011;5495;53.252;10.390;2023-02-15T06:35:25;83.03;;;20.17;;
10884;SDS011;5495;53.252;10.390;2023-02-15T06:37:58;96.73;;;20.33;;
10884;SDS011;5495;53.252;10.390;2023-02-15T06:40:30;34.57;;;18.40;;
10884;SDS011;5495;53.252;10.390;2023-02-15T06:42:57;63.07;;;19.03;;
10884;SDS011;5495;53.252;10.390;2023-02-15T06:45:27;42.33;;;18.43;;
10884;SDS011;5495;53.252;10.390;2023-02-15T06:47:54;54.73;;;18.70;;
10884;SDS011;5495;53.252;10.390;2023-02-15T06:50:26;50.23;;;19.10;;
10884;SDS011;5495;53.252;10.390;2023-02-15T06:52:57;53.17;;;19.63;;
10884;SDS011;5495;53.252;10.390;2023-02-15T06:55:25;41.77;;;18.70;;
10884;SDS011;5495;53.252;10.390;2023-02-15T06:57:55;45.90;;;18.63;;
10884;SDS011;5495;53.252;10.390;2023-02-15T07:00:27;35.17;;;18.27;;
10884;SDS011;5495;53.252;10.390;2023-02-15T07:02:57;58.57;;;17.73;;
10884;SDS011;5495;53.252;10.390;2023-02-15T07:05:27;34.70;;;18.03;;
10884;SDS011;5495;53.252;10.390;2023-02-15T07:07:58;40.67;;;17.73;;
10884;SDS011;5495;53.252;10.390;2023-02-15T07:10:27;25.03;;;17.40;;
10884;SDS011;5495;53.252;10.390;2023-02-15T07:12:55;36.37;;;18.27;;
10884;SDS011;5495;53.252;10.390;2023-02-15T07:15:21;40.17;;;18.10;;
10884;SDS011;5495;53.252;10.390;2023-02-15T07:18:03;32.47;;;17.47;;
10884;SDS011;5495;53.252;10.390;2023-02-15T07:20:31;44.17;;;18.00;;
10884;SDS011;5495;53.252;10.390;2023-02-15T07:23:00;40.43;;;17.20;;
10884;SDS011;5495;53.252;10.390;2023-02-15T07:25:33;29.83;;;17.17;;
10884;SDS011;5495;53.252;10.390;2023-02-15T07:28:03;30.73;;;18.50;;
10884;SDS011;5495;53.252;10.390;2023-02-15T07:30:37;30.53;;;17.50;;
10884;SDS011;5495;53.252;10.390;2023-02-15T07:33:06;45.43;;;18.03;;
10884;SDS011;5495;53.252;10.390;2023-02-15T07:35:57;42.40;;;17.97;;
10884;SDS011;5495;53.252;10.390;2023-02-15T07:38:29;47.10;;;19.40;;
10884;SDS011;5495;53.252;10.390;2023-02-15T07:41:20;34.53;;;16.43;;
10884;SDS011;5495;53.252;10.390;2023-02-15T07:43:53;33.20;;;17.80;;
10884;SDS011;5495;53.252;10.390;2023-02-15T07:46:25;38.53;;;18.00;;
10884;SDS011;5495;53.252;10.390;2023-02-15T07:48:55;40.83;;;17.37;;
10884;SDS011;5495;53.252;10.390;2023-02-15T07:51:26;26.33;;;16.30;;
10884;SDS011;5495;53.252;10.390;2023-02-15T07:53:55;27.27;;;15.37;;
10884;SDS011;5495;53.252;10.390;2023-02-15T07:56:36;25.73;;;15.17;;
10884;SDS011;5495;53.252;10.390;2023-02-15T07:59:12;26.90;;;15.60;;
10884;SDS011;5495;53.252;10.390;2023-02-15T08:01:53;21.53;;;14.30;;
10884;SDS011;5495;53.252;10.390;2023-02-15T08:05:03;24.70;;;14.43;;
10884;SDS011;5495;53.252;10.390;2023-02-15T08:08:00;19.00;;;13.73;;
10884;SDS011;5495;53.252;10.390;2023-02-15T08:10:56;29.13;;;14.20;;
10884;SDS011;5495;53.252;10.390;2023-02-15T08:13:49;20.27;;;13.87;;
10884;SDS011;5495;53.252;10.390;2023-02-15T08:16:29;27.00;;;13.23;;
10884;SDS011;5495;53.252;10.390;2023-02-15T08:19:05;22.37;;;13.70;;
10884;SDS011;5495;53.252;10.390;2023-02-15T08:21:52;36.87;;;16.40;;
10884;SDS011;5495;53.252;10.390;2023-02-15T08:24:26;26.00;;;13.70;;
10884;SDS011;5495;53.252;10.390;2023-02-15T08:27:19;19.53;;;12.90;;
10884;SDS011;5495;53.252;10.390;2023-02-15T08:30:02;22.67;;;13.33;;
10884;SDS011;5495;53.252;10.390;2023-02-15T08:32:40;23.07;;;14.00;;
10884;SDS011;5495;53.252;10.390;2023-02-15T08:35:09;24.23;;;13.67;;
10884;SDS011;5495;53.252;10.390;2023-02-15T08:40:34;17.97;;;12.70;;
10884;SDS011;5495;53.252;10.390;2023-02-15T08:43:03;18.67;;;13.63;;
10884;SDS011;5495;53.252;10.390;2023-02-15T08:45:32;19.90;;;13.27;;
10884;SDS011;5495;53.252;10.390;2023-02-15T08:48:00;17.70;;;13.20;;
10884;SDS011;5495;53.252;10.390;2023-02-15T08:50:33;17.47;;;13.33;;
10884;SDS011;5495;53.252;10.390;2023-02-15T08:53:02;18.20;;;12.73;;
10884;SDS011;5495;53.252;10.390;2023-02-15T08:55:55;22.47;;;13.07;;
10884;SDS011;5495;53.252;10.390;2023-02-15T08:58:27;19.10;;;13.47;;
10884;SDS011;5495;53.252;10.390;2023-02-15T09:00:56;19.70;;;14.30;;
10884;SDS011;5495;53.252;10.390;2023-02-15T09:03:28;21.30;;;14.43;;
10884;SDS011;5495;53.252;10.390;2023-02-15T09:05:56;17.47;;;13.43;;
10884;SDS011;5495;53.252;10.390;2023-02-15T09:08:26;17.93;;;13.03;;
10884;SDS011;5495;53.252;10.390;2023-02-15T09:11:03;16.87;;;12.90;;
10884;SDS011;5495;53.252;10.390;2023-02-15T09:13:32;18.50;;;13.73;;
10884;SDS011;5495;53.252;10.390;2023-02-15T09:16:06;16.60;;;13.03;;
10884;SDS011;5495;53.252;10.390;2023-02-15T09:18:36;17.83;;;13.90;;
10884;SDS011;5495;53.252;10.390;2023-02-15T09:21:08;16.93;;;12.97;;
10884;SDS011;5495;53.252;10.390;2023-02-15T09:23:40;19.03;;;13.90;;
10884;SDS011;5495;53.252;10.390;2023-02-15T09:26:09;19.03;;;13.77;;
10884;SDS011;5495;53.252;10.390;2023-02-15T09:28:40;16.97;;;12.77;;
10884;SDS011;5495;53.252;10.390;2023-02-15T09:31:14;18.87;;;14.13;;
10884;SDS011;5495;53.252;10.390;2023-02-15T09:33:57;15.83;;;12.90;;
10884;SDS011;5495;53.252;10.390;2023-02-15T09:36:47;16.93;;;12.83;;
10884;SDS011;5495;53.252;10.390;2023-02-15T09:39:30;19.03;;;14.60;;
10884;SDS011;5495;53.252;10.390;2023-02-15T09:45:25;19.20;;;13.13;;
10884;SDS011;5495;53.252;10.390;2023-02-15T09:48:38;19.40;;;14.13;;
10884;SDS011;5495;53.252;10.390;2023-02-15T09:51:17;18.93;;;13.73;;
10884;SDS011;5495;53.252;10.390;2023-02-15T09:54:16;17.70;;;13.43;;
10884;SDS011;5495;53.252;10.390;2023-02-15T09:57:06;19.53;;;14.20;;
10884;SDS011;5495;53.252;10.390;2023-02-15T09:59:54;17.77;;;13.50;;
10884;SDS011;5495;53.252;10.390;2023-02-15T10:02:33;18.00;;;13.60;;
10884;SDS011;5495;53.252;10.390;2023-02-15T10:05:23;17.90;;;13.83;;
10884;SDS011;5495;53.252;10.390;2023-02-15T10:08:12;18.40;;;13.47;;
10884;SDS011;5495;53.252;10.390;2023-02-15T10:14:12;19.27;;;14.10;;
10884;SDS011;5495;53.252;10.390;2023-02-15T10:20:12;19.80;;;13.53;;
10884;SDS011;5495;53.252;10.390;2023-02-15T10:22:52;20.93;;;14.30;;
10884;SDS011;5495;53.252;10.390;2023-02-15T10:25:45;22.27;;;15.10;;
10884;SDS011;5495;53.252;10.390;2023-02-15T10:28:23;19.73;;;14.57;;
10884;SDS011;5495;53.252;10.390;2023-02-15T10:31:10;20.27;;;14.87;;
10884;SDS011;5495;53.252;10.390;2023-02-15T10:34:09;17.40;;;14.13;;
10884;SDS011;5495;53.252;10.390;2023-02-15T10:36:51;18.40;;;14.23;;
10884;SDS011;5495;53.252;10.390;2023-02-15T10:40:04;20.97;;;14.13;;
10884;SDS011;5495;53.252;10.390;2023-02-15T10:42:59;18.37;;;13.70;;
10884;SDS011;5495;53.252;10.390;2023-02-15T10:45:57;17.13;;;13.47;;
10884;SDS011;5495;53.252;10.390;2023-02-15T10:48:47;18.47;;;14.37;;
10884;SDS011;5495;53.252;10.390;2023-02-15T10:58:12;18.27;;;14.57;;
10884;SDS011;5495;53.252;10.390;2023-02-15T11:06:56;19.53;;;13.20;;
10884;SDS011;5495;53.252;10.390;2023-02-15T11:09:33;17.23;;;13.33;;
10884;SDS011;5495;53.252;10.390;2023-02-15T11:12:08;17.33;;;13.90;;
10884;SDS011;5495;53.252;10.390;2023-02-15T11:14:43;17.07;;;13.47;;
10884;SDS011;5495;53.252;10.390;2023-02-15T11:17:19;15.73;;;12.40;;
10884;SDS011;5495;53.252;10.390;2023-02-15T11:19:53;16.37;;;12.53;;
10884;SDS011;5495;53.252;10.390;2023-02-15T11:22:27;14.30;;;11.63;;
10884;SDS011;5495;53.252;10.390;2023-02-15T11:24:59;14.97;;;11.27;;
10884;SDS011;5495;53.252;10.390;2023-02-15T11:27:31;13.37;;;11.30;;
10884;SDS011;5495;53.252;10.390;2023-02-15T11:30:00;13.23;;;11.83;;
10884;SDS011;5495;53.252;10.390;2023-02-15T11:32:32;12.87;;;11.50;;
10884;SDS011;5495;53.252;10.390;2023-02-15T11:35:10;14.00;;;12.50;;
10884;SDS011;5495;53.252;10.390;2023-02-15T11:37:48;14.20;;;11.53;;
10884;SDS011;5495;53.252;10.390;2023-02-15T11:40:22;12.20;;;10.87;;
10884;SDS011;5495;53.252;10.390;2023-02-15T11:42:56;12.47;;;11.27;;
10884;SDS011;5495;53.252;10.390;2023-02-15T11:45:29;13.23;;;11.63;;
10884;SDS011;5495;53.252;10.390;2023-02-15T11:48:01;12.50;;;11.20;;
10884;SDS011;5495;53.252;10.390;2023-02-15T11:50:38;11.83;;;10.67;;
10884;SDS011;5495;53.252;10.390;2023-02-15T11:53:11;12.43;;;11.13;;
10884;SDS011;5495;53.252;10.390;2023-02-15T11:55:44;12.10;;;10.90;;
10884;SDS011;5495;53.252;10.390;2023-02-15T11:58:16;11.93;;;10.77;;
10884;SDS011;5495;53.252;10.390;2023-02-15T12:00:54;12.80;;;11.60;;
10884;SDS011;5495;53.252;10.390;2023-02-15T12:03:30;12.00;;;10.80;;
10884;SDS011;5495;53.252;10.390;2023-02-15T12:06:23;12.03;;;10.93;;
10884;SDS011;5495;53.252;10.390;2023-02-15T12:08:57;11.70;;;10.60;;
10884;SDS011;5495;53.252;10.390;2023-02-15T12:11:31;12.47;;;11.37;;
10884;SDS011;5495;53.252;10.390;2023-02-15T12:14:04;13.03;;;11.70;;
10884;SDS011;5495;53.252;10.390;2023-02-15T12:16:41;12.87;;;11.67;;
10884;SDS011;5495;53.252;10.390;2023-02-15T12:19:26;12.20;;;11.10;;
10884;SDS011;5495;53.252;10.390;2023-02-15T12:21:58;12.43;;;11.23;;
10884;SDS011;5495;53.252;10.390;2023-02-15T12:24:30;13.07;;;11.87;;
10884;SDS011;5495;53.252;10.390;2023-02-15T12:27:04;12.70;;;11.50;;
10884;SDS011;5495;53.252;10.390;2023-02-15T12:29:35;12.50;;;11.30;;
10884;SDS011;5495;53.252;10.390;2023-02-15T12:32:09;12.33;;;11.23;;
10884;SDS011;5495;53.252;10.390;2023-02-15T12:34:51;12.07;;;10.97;;
10884;SDS011;5495;53.252;10.390;2023-02-15T12:37:34;12.10;;;11.07;;
10884;SDS011;5495;53.252;10.390;2023-02-15T12:40:23;11.50;;;10.33;;
10884;SDS011;5495;53.252;10.390;2023-02-15T12:42:55;13.00;;;11.70;;
10884;SDS011;5495;53.252;10.390;2023-02-15T12:45:34;12.50;;;11.40;;
10884;SDS011;5495;53.252;10.390;2023-02-15T12:48:12;11.83;;;10.60;;
10884;SDS011;5495;53.252;10.390;2023-02-15T12:50:48;12.70;;;11.53;;
10884;SDS011;5495;53.252;10.390;2023-02-15T12:53:17;13.10;;;11.80;;
10884;SDS011;5495;53.252;10.390;2023-02-15T12:55:52;13.20;;;11.97;;
10884;SDS011;5495;53.252;10.390;2023-02-15T12:58:22;12.83;;;11.53;;
10884;SDS011;5495;53.252;10.390;2023-02-15T13:01:02;13.60;;;12.20;;
10884;SDS011;5495;53.252;10.390;2023-02-15T13:03:51;15.40;;;12.70;;
10884;SDS011;5495;53.252;10.390;2023-02-15T13:06:24;13.40;;;12.10;;
10884;SDS011;5495;53.252;10.390;2023-02-15T13:08:54;13.50;;;12.10;;
10884;SDS011;5495;53.252;10.390;2023-02-15T13:11:25;14.80;;;12.00;;
10884;SDS011;5495;53.252;10.390;2023-02-15T13:13:59;14.50;;;12.13;;
10884;SDS011;5495;53.252;10.390;2023-02-15T13:16:29;14.80;;;12.37;;
10884;SDS011;5495;53.252;10.390;2023-02-15T13:19:02;17.47;;;12.80;;
10884;SDS011;5495;53.252;10.390;2023-02-15T13:21:41;16.57;;;11.97;;
10884;SDS011;5495;53.252;10.390;2023-02-15T13:24:15;15.43;;;12.83;;
10884;SDS011;5495;53.252;10.390;2023-02-15T13:26:47;15.13;;;13.00;;
10884;SDS011;5495;53.252;10.390;2023-02-15T13:29:17;16.60;;;13.67;;
10884;SDS011;5495;53.252;10.390;2023-02-15T13:31:49;14.83;;;12.40;;
10884;SDS011;5495;53.252;10.390;2023-02-15T13:34:24;14.47;;;12.83;;
10884;SDS011;5495;53.252;10.390;2023-02-15T13:36:57;14.90;;;12.80;;
10884;SDS011;5495;53.252;10.390;2023-02-15T13:39:36;15.47;;;12.03;;
10884;SDS011;5495;53.252;10.390;2023-02-15T13:42:13;15.73;;;12.50;;
10884;SDS011;5495;53.252;10.390;2023-02-15T13:44:53;17.60;;;12.40;;
10884;SDS011;5495;53.252;10.390;2023-02-15T13:47:36;17.27;;;12.67;;
10884;SDS011;5495;53.252;10.390;2023-02-15T13:50:19;14.97;;;12.17;;
10884;SDS011;5495;53.252;10.390;2023-02-15T13:53:08;15.77;;;12.93;;
10884;SDS011;5495;53.252;10.390;2023-02-15T13:55:52;15.23;;;11.50;;
10884;SDS011;5495;53.252;10.390;2023-02-15T13:58:34;15.03;;;11.90;;
10884;SDS011;5495;53.252;10.390;2023-02-15T14:01:31;14.07;;;11.33;;
10884;SDS011;5495;53.252;10.390;2023-02-15T14:04:18;16.07;;;11.87;;
10884;SDS011;5495;53.252;10.390;2023-02-15T14:07:20;18.80;;;11.60;;
10884;SDS011;5495;53.252;10.390;2023-02-15T14:10:02;15.60;;;12.07;;
10884;SDS011;5495;53.252;10.390;2023-02-15T14:12:45;13.90;;;11.37;;
10884;SDS011;5495;53.252;10.390;2023-02-15T14:18:12;15.03;;;12.50;;
10884;SDS011;5495;53.252;10.390;2023-02-15T14:20:57;16.23;;;13.10;;
10884;SDS011;5495;53.252;10.390;2023-02-15T14:23:33;16.73;;;14.23;;
10884;SDS011;5495;53.252;10.390;2023-02-15T14:26:09;17.60;;;13.53;;
10884;SDS011;5495;53.252;10.390;2023-02-15T14:28:42;15.73;;;13.03;;
10884;SDS011;5495;53.252;10.390;2023-02-15T14:31:16;17.03;;;12.87;;
10884;SDS011;5495;53.252;10.390;2023-02-15T14:33:52;17.67;;;13.47;;
10884;SDS011;5495;53.252;10.390;2023-02-15T14:36:22;17.97;;;14.30;;
10884;SDS011;5495;53.252;10.390;2023-02-15T14:38:59;16.87;;;14.00;;
10884;SDS011;5495;53.252;10.390;2023-02-15T14:42:01;17.40;;;14.27;;
10884;SDS011;5495;53.252;10.390;2023-02-15T14:44:35;22.17;;;14.40;;
10884;SDS011;5495;53.252;10.390;2023-02-15T14:47:11;16.83;;;13.63;;
10884;SDS011;5495;53.252;10.390;2023-02-15T14:49:52;21.00;;;15.17;;
10884;SDS011;5495;53.252;10.390;2023-02-15T14:52:20;19.03;;;14.60;;
10884;SDS011;5495;53.252;10.390;2023-02-15T14:54:54;17.83;;;14.63;;
10884;SDS011;5495;53.252;10.390;2023-02-15T14:57:31;28.37;;;18.93;;
10884;SDS011;5495;53.252;10.390;2023-02-15T14:59:59;23.43;;;16.20;;
10884;SDS011;5495;53.252;10.390;2023-02-15T15:02:43;46.47;;;27.10;;
10884;SDS011;5495;53.252;10.390;2023-02-15T15:05:16;58.70;;;34.57;;
10884;SDS011;5495;53.252;10.390;2023-02-15T15:07:47;38.97;;;25.10;;
10884;SDS011;5495;53.252;10.390;2023-02-15T15:10:34;30.50;;;21.60;;
10884;SDS011;5495;53.252;10.390;2023-02-15T15:19:11;21.80;;;16.33;;
10884;SDS011;5495;53.252;10.390;2023-02-15T15:24:50;21.97;;;15.57;;
10884;SDS011;5495;53.252;10.390;2023-02-15T15:36:39;24.03;;;16.90;;
10884;SDS011;5495;53.252;10.390;2023-02-15T15:39:42;21.33;;;15.73;;
10884;SDS011;5495;53.252;10.390;2023-02-15T15:42:50;21.10;;;16.37;;
10884;SDS011;5495;53.252;10.390;2023-02-15T15:45:45;22.23;;;17.07;;
10884;SDS011;5495;53.252;10.390;2023-02-15T15:48:23;21.77;;;16.43;;
10884;SDS011;5495;53.252;10.390;2023-02-15T15:51:04;23.10;;;17.47;;
10884;SDS011;5495;53.252;10.390;2023-02-15T15:53:44;19.63;;;15.23;;
10884;SDS011;5495;53.252;10.390;2023-02-15T15:56:18;19.57;;;15.77;;
10884;SDS011;5495;53.252;10.390;2023-02-15T15:58:49;23.80;;;16.30;;
10884;SDS011;5495;53.252;10.390;2023-02-15T16:01:35;22.07;;;17.07;;
10884;SDS011;5495;53.252;10.390;2023-02-15T16:07:13;17.40;;;13.63;;
10884;SDS011;5495;53.252;10.390;2023-02-15T16:09:59;13.27;;;10.80;;
10884;SDS011;5495;53.252;10.390;2023-02-15T16:12:29;15.97;;;11.67;;
10884;SDS011;5495;53.252;10.390;2023-02-15T16:15:00;17.13;;;12.47;;